Time;durP1;ratioP1;P1;durP2;ratioP2;P2;SDS_P1;SDS_P2;PMS_P1;PMS_P2;Temp;Humidity;BMP_temperature;BMP_pressure;BME280_temperature;BME280_humidity;BME280_pressure;Samples;Min_cycle;Max_cycle;Signal;HPM_P1;HPM_P2
2021/12/19 00:01:33;;;;;;;3.40;2.03;;;7.70;99.90;;;;;;5078312;28;20598;-84
2021/12/19 00:04:24;;;;;;;4.32;2.38;;;7.80;99.90;;;;;;5096567;28;20020;-83
2021/12/19 00:09:33;;;;;;;3.88;1.88;;;7.80;99.90;;;;;;5096329;28;20153;-83
2021/12/19 00:12:00;;;;;;;4.80;2.40;;;7.70;99.90;;;;;;5095837;28;20464;-83
2021/12/19 00:14:26;;;;;;;3.35;2.00;;;7.70;99.90;;;;;;5077883;28;20020;-84
2021/12/19 00:16:53;;;;;;;3.58;1.70;;;7.70;99.90;;;;;;5095870;28;20120;-83
2021/12/19 00:19:19;;;;;;;5.03;2.05;;;7.70;99.90;;;;;;5096047;28;20028;-83
2021/12/19 00:21:45;;;;;;;3.65;1.40;;;7.80;99.90;;;;;;5095847;28;20024;-84
2021/12/19 00:24:12;;;;;;;4.90;1.88;;;7.70;99.90;;;;;;5096081;28;20020;-83
2021/12/19 00:26:37;;;;;;;3.30;1.88;;;7.70;99.90;;;;;;5095132;28;20020;-83
2021/12/19 00:29:04;;;;;;;3.42;1.35;;;7.70;99.90;;;;;;5095611;28;20020;-83
2021/12/19 00:31:31;;;;;;;4.85;1.70;;;7.80;99.90;;;;;;5095612;28;20111;-84
2021/12/19 00:33:57;;;;;;;3.08;1.48;;;7.70;99.90;;;;;;5095640;28;20028;-84
2021/12/19 00:36:22;;;;;;;2.80;1.30;;;7.70;99.90;;;;;;5095727;28;20093;-84
2021/12/19 00:38:48;;;;;;;3.15;1.33;;;7.70;99.90;;;;;;5095310;28;20702;-83
2021/12/19 00:41:14;;;;;;;3.08;1.65;;;7.70;99.90;;;;;;5095620;28;20024;-83
2021/12/19 00:43:45;;;;;;;3.83;1.70;;;7.70;99.90;;;;;;5095485;28;20044;-83
2021/12/19 00:46:14;;;;;;;1.02;0.88;;;7.70;99.90;;;;;;5077254;28;20102;-84
2021/12/19 00:48:42;;;;;;;3.33;1.10;;;7.70;99.90;;;;;;5095300;28;20477;-84
2021/12/19 00:51:10;;;;;;;1.55;0.88;;;7.70;99.90;;;;;;5094934;28;20467;-84
2021/12/19 00:53:35;;;;;;;2.65;1.17;;;7.70;99.90;;;;;;5095119;28;20024;-83
2021/12/19 00:56:02;;;;;;;3.25;1.33;;;7.70;99.90;;;;;;5094943;28;20080;-83
2021/12/19 00:58:28;;;;;;;3.40;1.55;;;7.70;99.90;;;;;;5095289;28;20028;-84
2021/12/19 01:00:53;;;;;;;3.28;1.08;;;7.70;99.90;;;;;;5095042;28;20023;-83
2021/12/19 01:03:21;;;;;;;3.33;1.23;;;7.80;99.90;;;;;;5094970;28;20028;-84
2021/12/19 01:06:17;;;;;;;3.10;1.20;;;7.80;99.90;;;;;;5094995;28;20038;-84
2021/12/19 01:08:43;;;;;;;3.42;1.60;;;7.70;99.90;;;;;;5093497;28;20085;-84
2021/12/19 01:11:09;;;;;;;2.10;1.40;;;7.80;99.90;;;;;;5094625;28;20020;-84
2021/12/19 01:14:00;;;;;;;4.72;1.50;;;7.80;99.90;;;;;;5076650;28;20356;-84
2021/12/19 01:16:26;;;;;;;2.67;1.13;;;7.70;99.90;;;;;;5094928;28;20031;-84
2021/12/19 01:18:51;;;;;;;2.40;0.98;;;7.70;99.90;;;;;;5095019;28;20024;-84
2021/12/19 01:21:17;;;;;;;5.55;1.00;;;7.80;99.90;;;;;;5094439;28;20072;-84
2021/12/19 01:23:43;;;;;;;0.98;0.70;;;7.70;99.90;;;;;;5094517;28;20024;-84
2021/12/19 01:26:09;;;;;;;2.65;1.02;;;7.70;99.90;;;;;;5094387;28;20025;-84
2021/12/19 01:28:35;;;;;;;1.52;0.88;;;7.80;99.90;;;;;;5076154;28;20476;-84
2021/12/19 01:31:00;;;;;;;1.20;0.80;;;7.80;99.90;;;;;;5094282;28;20020;-84
2021/12/19 01:33:26;;;;;;;3.00;1.38;;;7.80;99.90;;;;;;5094320;28;20077;-83
2021/12/19 01:35:52;;;;;;;5.32;1.83;;;7.70;99.90;;;;;;5094472;28;20028;-84
2021/12/19 01:38:18;;;;;;;5.18;1.98;;;7.80;99.90;;;;;;5075561;28;20020;-83
2021/12/19 01:40:43;;;;;;;5.43;1.75;;;7.70;99.90;;;;;;5094534;28;20361;-84
2021/12/19 01:43:09;;;;;;;3.30;1.10;;;7.70;99.90;;;;;;5094400;28;20090;-84
2021/12/19 01:45:39;;;;;;;1.23;0.50;;;7.70;99.90;;;;;;5094320;28;20028;-84
2021/12/19 01:48:08;;;;;;;0.55;0.52;;;7.70;99.90;;;;;;5093953;28;20101;-84
2021/12/19 01:50:34;;;;;;;1.77;0.50;;;7.60;99.90;;;;;;5094175;28;20392;-84
2021/12/19 01:53:02;;;;;;;0.75;0.50;;;7.60;99.90;;;;;;5094134;28;20035;-84
2021/12/19 01:55:28;;;;;;;1.20;0.55;;;7.60;99.90;;;;;;5094038;28;20157;-84
2021/12/19 01:57:54;;;;;;;1.48;0.75;;;7.60;99.90;;;;;;5093963;28;20064;-84
2021/12/19 02:00:26;;;;;;;2.03;0.60;;;7.60;99.90;;;;;;5073976;28;20024;-84
2021/12/19 02:02:53;;;;;;;1.52;0.60;;;7.60;99.90;;;;;;5056151;28;20031;-84
2021/12/19 02:05:20;;;;;;;1.40;0.80;;;7.60;99.90;;;;;;5073547;28;20427;-84
2021/12/19 02:07:47;;;;;;;1.65;0.50;;;7.60;99.90;;;;;;5073348;28;20427;-84
2021/12/19 02:10:18;;;;;;;1.70;0.77;;;7.60;99.90;;;;;;5073524;28;20027;-84
2021/12/19 02:12:47;;;;;;;1.13;0.52;;;7.50;99.90;;;;;;5073651;28;20439;-84
2021/12/19 02:15:17;;;;;;;1.58;0.50;;;7.50;99.90;;;;;;5073379;28;20017;-84
2021/12/19 02:17:43;;;;;;;0.47;0.25;;;7.40;99.90;;;;;;5073431;28;20097;-84
2021/12/19 02:20:14;;;;;;;0.20;0.10;;;7.30;99.90;;;;;;5073839;28;20028;-84
2021/12/19 02:22:41;;;;;;;0.38;0.20;;;7.30;99.90;;;;;;5073971;28;20551;-84
2021/12/19 02:25:07;;;;;;;2.13;0.28;;;7.30;99.90;;;;;;5073652;28;20060;-84
2021/12/19 02:27:32;;;;;;;3.08;0.20;;;7.30;99.90;;;;;;5073277;28;20119;-84
2021/12/19 02:29:58;;;;;;;1.00;0.30;;;7.40;99.90;;;;;;5073543;28;20063;-84
2021/12/19 02:32:25;;;;;;;1.63;0.20;;;7.40;99.90;;;;;;5073600;28;20416;-84
2021/12/19 02:34:53;;;;;;;2.42;0.30;;;7.40;99.90;;;;;;5073775;28;20024;-84
2021/12/19 02:37:51;;;;;;;0.55;0.30;;;7.40;99.90;;;;;;5073830;28;20839;-84
2021/12/19 02:40:26;;;;;;;0.50;0.20;;;7.40;99.90;;;;;;5073773;28;20098;-84
2021/12/19 02:48:20;;;;;;;1.35;0.50;;;7.30;99.90;;;;;;5073296;28;20392;-84
2021/12/19 02:50:55;;;;;;;2.17;0.70;;;7.40;99.90;;;;;;5096286;28;20020;-84
2021/12/19 02:53:27;;;;;;;5.97;0.88;;;7.40;99.90;;;;;;5097310;28;20020;-84
2021/12/19 02:59:14;;;;;;;0.85;0.47;;;7.40;99.90;;;;;;5097689;28;20035;-83
2021/12/19 03:01:43;;;;;;;0.30;0.30;;;7.40;99.90;;;;;;5097297;28;20020;-83
2021/12/19 03:04:08;;;;;;;0.47;0.30;;;7.40;99.90;;;;;;5078971;28;20020;-84
2021/12/19 03:06:34;;;;;;;1.08;0.20;;;7.20;99.90;;;;;;5078718;28;20024;-84
2021/12/19 03:09:05;;;;;;;0.43;0.10;;;7.20;99.90;;;;;;5078722;28;20361;-84
2021/12/19 03:12:00;;;;;;;2.97;0.28;;;7.20;99.90;;;;;;5097218;28;20024;-83
2021/12/19 03:19:45;;;;;;;1.85;0.52;;;7.30;99.90;;;;;;5096893;28;20112;-83
2021/12/19 03:22:10;;;;;;;0.40;0.40;;;7.20;99.90;;;;;;5096636;28;20040;-84
2021/12/19 03:24:36;;;;;;;1.15;0.22;;;7.20;99.90;;;;;;5096684;28;20062;-84
2021/12/19 03:27:02;;;;;;;1.33;0.20;;;7.10;99.90;;;;;;5078734;28;20038;-84
2021/12/19 03:29:28;;;;;;;1.27;0.20;;;7.10;99.90;;;;;;5096588;28;20051;-84
2021/12/19 03:31:53;;;;;;;0.73;0.10;;;7.20;99.90;;;;;;5096499;28;20060;-84
2021/12/19 03:34:19;;;;;;;1.30;0.20;;;7.20;99.90;;;;;;5096339;28;20490;-84
2021/12/19 03:36:45;;;;;;;1.20;0.20;;;7.20;99.90;;;;;;5096358;28;20020;-84
2021/12/19 03:39:14;;;;;;;4.60;0.43;;;7.20;99.90;;;;;;5078509;28;20734;-84
2021/12/19 03:41:43;;;;;;;0.55;0.03;;;7.10;99.90;;;;;;5096371;28;20025;-84
2021/12/19 03:44:08;;;;;;;0.40;0.20;;;7.20;99.90;;;;;;5096192;28;20072;-84
2021/12/19 03:46:35;;;;;;;0.43;0.13;;;7.20;99.90;;;;;;5095906;28;20447;-84
2021/12/19 03:49:01;;;;;;;1.38;0.10;;;7.10;99.90;;;;;;5096193;28;20367;-84
2021/12/19 03:51:27;;;;;;;2.10;0.22;;;7.10;99.90;;;;;;5077930;28;20502;-84
2021/12/19 03:53:52;;;;;;;1.08;0.30;;;7.10;99.90;;;;;;5095865;28;20055;-84
2021/12/19 03:56:18;;;;;;;0.50;0.20;;;7.10;99.90;;;;;;5096133;28;20059;-83
2021/12/19 03:58:44;;;;;;;1.35;0.30;;;7.20;99.90;;;;;;5096023;28;20035;-84
2021/12/19 04:01:10;;;;;;;0.88;0.60;;;7.10;99.90;;;;;;5094997;28;20020;-84
2021/12/19 04:03:36;;;;;;;1.35;0.60;;;7.20;99.90;;;;;;5077697;28;20480;-84
2021/12/19 04:06:03;;;;;;;1.83;0.55;;;7.10;99.90;;;;;;5077713;28;20024;-84
2021/12/19 04:08:29;;;;;;;2.25;0.52;;;7.20;99.90;;;;;;5095655;28;20106;-84
2021/12/19 04:10:55;;;;;;;0.40;0.30;;;7.10;99.90;;;;;;5095910;28;20422;-84
2021/12/19 04:13:22;;;;;;;3.55;0.50;;;7.20;99.90;;;;;;5077551;28;20487;-84
2021/12/19 04:15:49;;;;;;;0.85;0.20;;;7.20;99.90;;;;;;5095863;28;20070;-84
2021/12/19 04:18:15;;;;;;;1.33;0.40;;;7.10;99.90;;;;;;5095762;28;20051;-83
2021/12/19 04:20:41;;;;;;;2.47;0.20;;;7.10;99.90;;;;;;5095680;28;20031;-83
2021/12/19 04:23:06;;;;;;;0.63;0.20;;;7.10;99.90;;;;;;5095473;28;20024;-83
2021/12/19 04:25:32;;;;;;;1.55;0.40;;;7.20;99.90;;;;;;5095370;28;20016;-83
2021/12/19 04:27:58;;;;;;;0.82;0.38;;;7.20;99.90;;;;;;5076665;28;20032;-84
2021/12/19 04:30:25;;;;;;;3.03;0.80;;;7.10;99.90;;;;;;5095356;28;20510;-84
2021/12/19 04:32:59;;;;;;;6.38;1.50;;;7.20;99.90;;;;;;5077662;28;20535;-84
2021/12/19 04:35:30;;;;;;;1.98;1.30;;;7.20;99.90;;;;;;5095796;28;20024;-84
2021/12/19 04:38:14;;;;;;;4.07;1.25;;;7.20;99.90;;;;;;5077309;28;20057;-83
2021/12/19 04:56:47;;;;;;;2.92;0.73;;;7.30;99.90;;;;;;5095025;28;20066;-83
2021/12/19 05:02:11;;;;;;;1.55;0.60;;;7.30;99.90;;;;;;5095450;28;20038;-83
2021/12/19 05:15:24;;;;;;;5.43;1.23;;;7.40;99.90;;;;;;5094652;28;20035;-84
2021/12/19 05:17:49;;;;;;;3.75;1.23;;;7.30;99.90;;;;;;5095107;28;20359;-83
2021/12/19 05:20:16;;;;;;;6.57;1.77;;;7.40;99.90;;;;;;5076943;28;20020;-84
2021/12/19 05:22:55;;;;;;;2.78;0.80;;;7.30;99.90;;;;;;5095028;28;20080;-83
2021/12/19 05:25:21;;;;;;;4.50;2.40;;;7.40;99.90;;;;;;5094808;28;20107;-83
2021/12/19 05:27:53;;;;;;;4.30;1.67;;;7.40;99.90;;;;;;5076090;28;20096;-83
2021/12/19 05:30:19;;;;;;;9.85;2.60;;;7.40;99.90;;;;;;5076273;28;20114;-84
2021/12/19 05:32:46;;;;;;;4.20;1.40;;;7.50;99.90;;;;;;5076532;28;20024;-83
2021/12/19 05:35:16;;;;;;;3.22;1.30;;;7.40;99.90;;;;;;5094357;28;20028;-83
2021/12/19 05:45:55;;;;;;;8.15;3.42;;;7.50;99.90;;;;;;5094350;28;20438;-83
2021/12/19 05:48:20;;;;;;;12.07;5.60;;;7.50;99.90;;;;;;5075651;28;20483;-84
2021/12/19 05:50:46;;;;;;;13.82;4.50;;;7.50;99.90;;;;;;5093979;28;20028;-83
2021/12/19 05:53:14;;;;;;;12.27;4.18;;;7.50;99.90;;;;;;5094070;28;20443;-83
2021/12/19 05:55:40;;;;;;;7.47;3.28;;;7.50;99.90;;;;;;5075809;28;20392;-83
2021/12/19 05:58:06;;;;;;;6.10;2.22;;;7.60;99.90;;;;;;5094233;28;20039;-84
2021/12/19 06:00:33;;;;;;;5.70;2.72;;;7.50;39.60;;;;;;5094226;28;20020;-84
2021/12/19 06:03:01;;;;;;;3.65;1.90;;;7.60;46.40;;;;;;5094020;28;20506;-83
2021/12/19 06:05:27;;;;;;;7.68;2.60;;;7.50;1.00;;;;;;5094051;28;20031;-84
2021/12/19 06:07:53;;;;;;;8.02;2.53;;;7.50;1.00;;;;;;5094015;28;20028;-83
2021/12/19 06:10:20;;;;;;;12.00;3.05;;;7.50;1.00;;;;;;5094176;28;20024;-84
2021/12/19 06:12:46;;;;;;;2.72;1.58;;;7.60;1.00;;;;;;5076071;28;20027;-83
2021/12/19 06:15:12;;;;;;;4.75;1.38;;;7.60;1.00;;;;;;5075111;28;20024;-84
2021/12/19 06:17:40;;;;;;;3.88;1.63;;;7.50;1.00;;;;;;5088907;28;20065;-83
2021/12/19 06:20:06;;;;;;;6.03;2.13;;;7.50;1.00;;;;;;5094286;28;20016;-83
2021/12/19 06:22:31;;;;;;;5.90;2.30;;;7.50;1.00;;;;;;5092809;28;20028;-84
2021/12/19 06:24:57;;;;;;;5.57;1.88;;;7.50;1.00;;;;;;5075084;28;20077;-83
2021/12/19 06:27:23;;;;;;;6.95;1.77;;;7.50;1.00;;;;;;5090267;28;20028;-83
2021/12/19 06:29:49;;;;;;;5.15;1.48;;;7.50;1.00;;;;;;5087166;28;20037;-84
2021/12/19 06:32:16;;;;;;;8.18;1.70;;;7.60;1.00;;;;;;5091121;28;20016;-83
2021/12/19 06:34:42;;;;;;;4.03;1.48;;;7.50;1.00;;;;;;5095239;28;20048;-83
2021/12/19 06:37:19;;;;;;;1.38;0.75;;;7.50;1.00;;;;;;5095286;28;20071;-83
2021/12/19 06:39:46;;;;;;;8.82;2.42;;;7.50;1.00;;;;;;5094249;28;20114;-83
2021/12/19 06:42:12;;;;;;;7.47;2.80;;;7.50;1.00;;;;;;5089040;28;20066;-83
2021/12/19 06:44:54;;;;;;;6.38;1.85;;;7.50;1.00;;;;;;5092546;28;20453;-83
2021/12/19 06:47:19;;;;;;;2.20;1.25;;;7.40;1.00;;;;;;5081505;28;20029;-83
2021/12/19 06:49:45;;;;;;;8.52;1.95;;;7.50;99.90;;;;;;5090091;28;20031;-84
2021/12/19 06:52:10;;;;;;;6.40;2.10;;;7.50;99.90;;;;;;5089135;28;20024;-84
2021/12/19 06:54:36;;;;;;;7.38;1.58;;;7.50;99.90;;;;;;5100338;28;20028;-84
2021/12/19 06:57:02;;;;;;;3.90;2.17;;;7.50;99.90;;;;;;5115227;28;20086;-83
2021/12/19 06:59:27;;;;;;;7.82;1.60;;;7.50;99.90;;;;;;5101305;28;20017;-83
2021/12/19 07:01:53;;;;;;;3.30;1.98;;;7.50;99.90;;;;;;5094336;28;20103;-84
2021/12/19 07:04:18;;;;;;;4.03;2.25;;;7.50;99.90;;;;;;5102528;28;20059;-84
2021/12/19 07:06:44;;;;;;;3.65;1.52;;;7.50;99.90;;;;;;5113053;28;20015;-84
2021/12/19 07:09:09;;;;;;;5.15;1.30;;;7.50;99.90;;;;;;5084764;28;20072;-84
2021/12/19 07:11:35;;;;;;;4.63;1.88;;;7.50;99.90;;;;;;5076214;28;20016;-84
2021/12/19 07:14:00;;;;;;;5.63;1.20;;;7.50;99.90;;;;;;5094570;28;20422;-84
2021/12/19 07:16:26;;;;;;;2.70;0.95;;;7.50;99.90;;;;;;5094126;28;20494;-83
2021/12/19 07:18:51;;;;;;;2.83;1.45;;;7.40;99.90;;;;;;5076217;28;20101;-84
2021/12/19 07:21:17;;;;;;;3.75;1.25;;;7.50;99.90;;;;;;5095362;28;20041;-84
2021/12/19 07:23:43;;;;;;;4.88;1.33;;;7.40;1.00;;;;;;5094007;28;20027;-83
2021/12/19 07:26:08;;;;;;;3.53;1.02;;;7.40;1.00;;;;;;5094095;28;20031;-83
2021/12/19 07:28:34;;;;;;;6.20;1.27;;;7.40;1.00;;;;;;5075936;28;20090;-83
2021/12/19 07:31:00;;;;;;;1.45;0.85;;;7.40;1.00;;;;;;5094208;28;20472;-83
2021/12/19 07:33:26;;;;;;;4.85;1.20;;;7.40;1.00;;;;;;5094141;28;20024;-83
2021/12/19 07:35:52;;;;;;;2.42;1.10;;;7.40;1.00;;;;;;5074545;28;20127;-83
2021/12/19 07:38:32;;;;;;;3.00;0.73;;;7.40;1.00;;;;;;5071938;28;20107;-83
2021/12/19 07:40:59;;;;;;;1.40;0.80;;;7.40;99.90;;;;;;5076747;28;20372;-84
2021/12/19 07:43:25;;;;;;;2.60;0.68;;;7.40;99.90;;;;;;5076770;28;20044;-83
2021/12/19 07:45:50;;;;;;;7.57;0.93;;;7.30;99.90;;;;;;5086431;28;20035;-83
2021/12/19 07:48:16;;;;;;;3.67;1.23;;;7.30;1.00;;;;;;5083594;28;20032;-83
2021/12/19 07:50:41;;;;;;;4.80;0.98;;;7.30;1.00;;;;;;5081875;28;20059;-83
2021/12/19 07:53:08;;;;;;;6.63;1.42;;;7.40;99.90;;;;;;5081711;28;20020;-83
2021/12/19 07:55:34;;;;;;;5.93;1.80;;;7.30;1.00;;;;;;5083068;28;20107;-83
2021/12/19 07:58:00;;;;;;;5.95;1.45;;;7.30;1.00;;;;;;5094234;28;20024;-83
2021/12/19 08:00:26;;;;;;;6.95;1.65;;;7.40;1.00;;;;;;5071999;28;20391;-83
2021/12/19 08:02:52;;;;;;;4.40;1.15;;;7.40;99.90;;;;;;5084530;28;20029;-83
2021/12/19 08:05:19;;;;;;;6.35;1.70;;;7.40;1.00;;;;;;5069873;28;20476;-83
2021/12/19 08:07:48;;;;;;;10.02;2.35;;;7.30;1.00;;;;;;5075370;28;20060;-83
2021/12/19 08:11:39;;;;;;;6.22;1.92;;;7.40;1.00;;;;;;5075590;28;20031;-82
2021/12/19 08:13:03;;;;;;;9.02;1.73;;;7.40;1.00;;;;;;5075350;28;20059;-83
2021/12/19 08:15:30;;;;;;;9.15;2.13;;;7.40;1.00;;;;;;5076662;28;20635;-82
2021/12/19 08:17:55;;;;;;;12.10;2.22;;;7.40;1.00;;;;;;5088335;28;20024;-82
2021/12/19 08:20:34;;;;;;;9.80;1.88;;;7.40;1.00;;;;;;5085409;28;20025;-82
2021/12/19 08:23:00;;;;;;;9.98;2.20;;;7.40;1.00;;;;;;5085957;28;20476;-82
2021/12/19 08:25:44;;;;;;;9.65;2.50;;;7.50;1.00;;;;;;5084481;28;20023;-82
2021/12/19 08:28:10;;;;;;;4.95;1.25;;;7.50;1.00;;;;;;5081458;28;20039;-82
2021/12/19 08:30:36;;;;;;;3.33;0.90;;;7.60;1.00;;;;;;5079644;28;20384;-83
2021/12/19 08:33:01;;;;;;;12.40;2.60;;;7.60;1.00;;;;;;5086107;28;20024;-83
2021/12/19 08:35:27;;;;;;;11.70;2.47;;;7.50;1.00;;;;;;5080871;28;20028;-83
2021/12/19 08:37:52;;;;;;;8.30;1.60;;;7.60;1.00;;;;;;5087176;28;20464;-83
2021/12/19 08:40:18;;;;;;;6.03;2.00;;;7.60;1.00;;;;;;5086097;28;20047;-83
2021/12/19 08:42:44;;;;;;;7.40;1.95;;;7.60;1.00;;;;;;5080193;28;20055;-83
2021/12/19 08:45:10;;;;;;;7.95;2.22;;;7.70;1.00;;;;;;5078844;28;20028;-83
2021/12/19 08:47:35;;;;;;;9.43;2.25;;;7.70;99.90;;;;;;5080255;28;20475;-83
2021/12/19 08:50:03;;;;;;;3.28;1.10;;;7.70;99.90;;;;;;5087563;28;20100;-83
2021/12/19 08:52:29;;;;;;;7.88;1.75;;;7.70;99.90;;;;;;5092179;28;20024;-83
2021/12/19 08:54:54;;;;;;;7.80;1.45;;;7.70;1.00;;;;;;5089560;28;20450;-83
2021/12/19 08:57:20;;;;;;;10.00;1.70;;;7.70;99.90;;;;;;5075397;28;20039;-83
2021/12/19 08:59:45;;;;;;;11.07;2.30;;;7.70;1.00;;;;;;5085095;28;20024;-83
2021/12/19 09:02:11;;;;;;;9.82;2.40;;;7.80;99.90;;;;;;5082487;28;20024;-83
2021/12/19 09:04:37;;;;;;;5.53;2.00;;;7.80;1.00;;;;;;5073075;28;20104;-83
2021/12/19 09:07:03;;;;;;;20.00;2.65;;;7.80;1.00;;;;;;5071955;28;20056;-83
2021/12/19 09:09:29;;;;;;;6.60;2.40;;;7.80;1.00;;;;;;5084755;28;20028;-83
2021/12/19 09:11:55;;;;;;;8.13;1.80;;;7.80;1.00;;;;;;5092257;28;20412;-82
2021/12/19 09:14:21;;;;;;;8.77;2.72;;;7.80;1.00;;;;;;5073809;28;20027;-82
2021/12/19 09:16:46;;;;;;;10.43;1.80;;;7.90;1.00;;;;;;5073439;28;20017;-82
2021/12/19 09:19:13;;;;;;;12.70;2.38;;;7.90;1.00;;;;;;5091562;28;20375;-82
2021/12/19 09:21:39;;;;;;;6.32;1.95;;;7.90;1.00;;;;;;5073399;28;20028;-82
2021/12/19 09:24:05;;;;;;;3.60;1.52;;;7.90;99.90;;;;;;5079740;28;20016;-82
2021/12/19 09:26:30;;;;;;;2.15;0.77;;;7.90;99.90;;;;;;5091736;28;20035;-82
2021/12/19 09:28:56;;;;;;;10.48;1.25;;;8.00;99.90;;;;;;5091404;28;20036;-82
2021/12/19 09:31:22;;;;;;;3.30;1.23;;;8.00;99.90;;;;;;5081293;28;20365;-82
2021/12/19 09:33:48;;;;;;;6.93;1.63;;;8.00;99.90;;;;;;5058414;28;20040;-82
2021/12/19 09:36:13;;;;;;;5.38;1.15;;;8.00;99.90;;;;;;5074026;28;20020;-82
2021/12/19 09:38:41;;;;;;;5.47;1.35;;;8.00;99.90;;;;;;5051460;28;20021;-82
2021/12/19 09:41:16;;;;;;;6.32;1.10;;;8.00;99.90;;;;;;5072632;28;20060;-82
2021/12/19 09:43:42;;;;;;;2.45;0.73;;;8.10;99.90;;;;;;5070967;28;20063;-82
2021/12/19 09:46:18;;;;;;;6.40;1.17;;;8.10;99.90;;;;;;5073897;28;20488;-82
2021/12/19 09:48:48;;;;;;;1.48;0.77;;;8.10;99.90;;;;;;5073999;28;20024;-82
2021/12/19 09:51:15;;;;;;;6.15;1.17;;;8.10;99.90;;;;;;5075347;28;20023;-82
2021/12/19 09:53:40;;;;;;;6.43;1.70;;;8.10;99.90;;;;;;5077384;28;20021;-82
2021/12/19 09:56:07;;;;;;;4.50;1.35;;;8.10;99.90;;;;;;5072087;28;20035;-82
2021/12/19 09:58:34;;;;;;;10.32;1.83;;;8.10;99.90;;;;;;5083797;28;20040;-82
2021/12/19 10:01:02;;;;;;;8.30;2.20;;;8.10;99.90;;;;;;5091096;28;20091;-82
2021/12/19 10:03:28;;;;;;;6.60;2.42;;;8.10;99.90;;;;;;5090878;28;20476;-82
2021/12/19 10:06:12;;;;;;;4.65;1.42;;;8.20;99.90;;;;;;5091064;28;20016;-82
2021/12/19 10:08:39;;;;;;;8.38;1.58;;;8.10;99.90;;;;;;5090600;28;20345;-82
2021/12/19 10:11:13;;;;;;;4.47;0.90;;;8.20;99.90;;;;;;5091456;28;20023;-82
2021/12/19 10:13:39;;;;;;;5.05;0.88;;;8.20;99.90;;;;;;5072935;28;20059;-82
2021/12/19 10:16:30;;;;;;;3.15;1.42;;;8.20;99.90;;;;;;5090815;28;20468;-82
2021/12/19 10:18:59;;;;;;;8.68;1.40;;;8.20;99.90;;;;;;5091105;28;20098;-82
2021/12/19 10:21:25;;;;;;;3.90;0.88;;;8.20;99.90;;;;;;5072984;28;20053;-82
2021/12/19 10:23:51;;;;;;;4.97;1.52;;;8.30;99.90;;;;;;5090574;28;20032;-82
2021/12/19 10:26:17;;;;;;;2.10;0.77;;;8.20;99.90;;;;;;5091028;28;20099;-82
2021/12/19 10:28:57;;;;;;;5.78;0.93;;;8.30;99.90;;;;;;5090700;28;20074;-82
2021/12/19 10:31:25;;;;;;;8.48;1.45;;;8.20;99.90;;;;;;5090659;28;20034;-82
2021/12/19 10:33:51;;;;;;;4.82;1.40;;;8.30;99.90;;;;;;5090761;28;20383;-82
2021/12/19 10:36:19;;;;;;;3.03;1.10;;;8.30;99.90;;;;;;5072888;28;20120;-82
2021/12/19 10:38:57;;;;;;;6.10;1.67;;;8.20;99.90;;;;;;5090620;28;20024;-82
2021/12/19 10:41:33;;;;;;;11.13;2.38;;;8.20;99.90;;;;;;5091358;28;20025;-82
2021/12/19 10:46:41;;;;;;;11.48;1.83;;;8.30;99.90;;;;;;5091072;28;20063;-82
2021/12/19 10:49:32;;;;;;;9.48;2.33;;;8.30;99.90;;;;;;5090781;28;20040;-82
2021/12/19 10:52:04;;;;;;;5.05;1.25;;;8.30;99.90;;;;;;5090537;28;20480;-82
2021/12/19 10:54:30;;;;;;;7.60;1.88;;;8.40;99.90;;;;;;5072694;28;20113;-82
2021/12/19 10:57:10;;;;;;;8.57;1.52;;;8.30;99.90;;;;;;5090731;28;20024;-82
2021/12/19 10:59:36;;;;;;;6.95;1.80;;;8.30;99.90;;;;;;5090550;28;20063;-82
2021/12/19 11:02:02;;;;;;;4.72;1.95;;;8.40;99.90;;;;;;5090678;28;20064;-82
2021/12/19 11:04:29;;;;;;;6.10;1.30;;;8.40;99.90;;;;;;5090592;28;20020;-82
2021/12/19 11:06:58;;;;;;;1.90;0.90;;;8.40;99.90;;;;;;5076939;28;20021;-82
2021/12/19 11:09:33;;;;;;;5.43;1.40;;;8.40;99.90;;;;;;5072794;28;20025;-81
2021/12/19 11:12:08;;;;;;;8.70;1.45;;;8.40;99.90;;;;;;5076301;28;20510;-82
2021/12/19 11:14:37;;;;;;;1.63;0.95;;;8.30;99.90;;;;;;5085529;28;20063;-82
2021/12/19 11:17:10;;;;;;;7.82;1.90;;;8.40;99.90;;;;;;5074662;28;20565;-82
2021/12/19 11:19:38;;;;;;;7.20;1.33;;;8.30;99.90;;;;;;5075272;28;20020;-82
2021/12/19 11:22:04;;;;;;;9.32;2.17;;;8.40;99.90;;;;;;5057579;28;20025;-82
2021/12/19 11:24:30;;;;;;;13.43;1.98;;;8.30;99.90;;;;;;5085693;28;20475;-82
2021/12/19 11:27:01;;;;;;;11.50;1.98;;;8.40;99.90;;;;;;5079109;28;20028;-82
2021/12/19 11:29:27;;;;;;;3.63;1.13;;;8.40;99.90;;;;;;5072681;28;20051;-82
2021/12/19 11:31:59;;;;;;;7.22;1.70;;;8.40;99.90;;;;;;5073136;28;20100;-82
2021/12/19 11:34:58;;;;;;;6.63;1.83;;;8.40;99.90;;;;;;5076603;28;20024;-82
2021/12/19 11:37:32;;;;;;;6.32;1.20;;;8.40;99.90;;;;;;5057899;28;20373;-82
2021/12/19 11:39:58;;;;;;;5.80;0.93;;;8.50;99.90;;;;;;5055640;28;20468;-81
2021/12/19 11:42:36;;;;;;;3.25;0.82;;;8.50;99.90;;;;;;5073384;28;20050;-81
2021/12/19 11:45:30;;;;;;;6.90;2.55;;;8.50;99.90;;;;;;5055165;28;20025;-81
2021/12/19 11:48:03;;;;;;;7.60;1.48;;;8.50;99.90;;;;;;5075426;28;20056;-80
2021/12/19 11:50:32;;;;;;;3.65;0.85;;;8.50;99.90;;;;;;5085881;28;20044;-82
2021/12/19 11:53:09;;;;;;;3.05;0.93;;;8.50;99.90;;;;;;5093330;28;20032;-82
2021/12/19 11:55:37;;;;;;;2.97;1.40;;;8.50;99.90;;;;;;5093414;28;20031;-82
2021/12/19 11:58:08;;;;;;;5.93;1.23;;;8.50;99.90;;;;;;5092969;28;20416;-82
2021/12/19 12:00:55;;;;;;;5.68;1.27;;;8.50;99.90;;;;;;5093561;28;20095;-82
2021/12/19 12:03:28;;;;;;;6.10;1.67;;;8.50;99.90;;;;;;5075497;28;20040;-82
2021/12/19 12:06:14;;;;;;;5.00;0.70;;;8.50;99.90;;;;;;5093303;28;20020;-82
2021/12/19 12:09:02;;;;;;;9.77;1.30;;;8.50;99.90;;;;;;5074346;28;20028;-82
2021/12/19 12:11:29;;;;;;;6.45;1.42;;;8.50;99.90;;;;;;5093190;28;20411;-83
2021/12/19 12:14:14;;;;;;;10.35;1.73;;;8.50;99.90;;;;;;5074982;28;20024;-82
2021/12/19 12:16:51;;;;;;;9.10;1.63;;;8.50;99.90;;;;;;5092846;28;20050;-83
2021/12/19 12:19:34;;;;;;;7.90;2.00;;;8.50;99.90;;;;;;5093224;28;20353;-82
2021/12/19 12:22:24;;;;;;;8.82;2.33;;;8.50;99.90;;;;;;5073885;28;20067;-82
2021/12/19 12:25:12;;;;;;;14.45;2.72;;;8.50;99.90;;;;;;5092481;28;20024;-82
2021/12/19 12:27:50;;;;;;;13.88;2.72;;;8.60;99.90;;;;;;5080217;28;20050;-82
2021/12/19 12:30:30;;;;;;;5.70;1.17;;;8.60;99.90;;;;;;5089406;28;20027;-82
2021/12/19 12:32:58;;;;;;;13.43;2.95;;;8.60;99.90;;;;;;5095058;28;20024;-82
2021/12/19 12:35:25;;;;;;;12.40;2.20;;;8.60;99.90;;;;;;5094896;28;20035;-82
2021/12/19 12:37:53;;;;;;;9.57;1.67;;;8.60;99.90;;;;;;5076429;28;20051;-82
2021/12/19 12:40:26;;;;;;;5.32;1.10;;;8.60;99.90;;;;;;5075469;28;20048;-82
2021/12/19 12:43:10;;;;;;;12.73;2.92;;;8.60;99.90;;;;;;5083010;28;20040;-83
2021/12/19 12:45:57;;;;;;;9.95;2.17;;;8.60;99.90;;;;;;5057748;28;20029;-83
2021/12/19 12:48:28;;;;;;;11.88;3.97;;;8.60;99.90;;;;;;5077254;28;20488;-82
2021/12/19 12:50:53;;;;;;;8.35;1.85;;;8.60;99.90;;;;;;5071890;28;20020;-83
2021/12/19 12:53:29;;;;;;;11.65;2.55;;;8.60;99.90;;;;;;5080115;28;20024;-82
2021/12/19 12:56:20;;;;;;;50.92;16.63;;;8.60;99.90;;;;;;5088538;28;20115;-82
2021/12/19 12:58:49;;;;;;;13.50;5.10;;;8.60;99.90;;;;;;5092276;28;20031;-82
2021/12/19 13:01:25;;;;;;;13.52;2.53;;;8.70;99.90;;;;;;5092342;28;20020;-82
2021/12/19 13:04:13;;;;;;;8.93;2.17;;;8.70;99.90;;;;;;5082321;28;20024;-82
2021/12/19 13:06:43;;;;;;;13.70;2.65;;;8.70;99.90;;;;;;5075906;28;20035;-83
2021/12/19 13:09:19;;;;;;;9.85;1.95;;;8.60;99.90;;;;;;5085867;28;20036;-82
2021/12/19 13:11:48;;;;;;;6.18;1.42;;;8.60;99.90;;;;;;5076140;28;20047;-83
2021/12/19 13:14:23;;;;;;;12.35;2.42;;;8.60;99.90;;;;;;5056187;28;20021;-83
2021/12/19 13:17:01;;;;;;;4.97;1.35;;;8.60;99.90;;;;;;5071077;28;20491;-83
2021/12/19 13:19:38;;;;;;;7.30;1.52;;;8.60;99.90;;;;;;5058569;28;20047;-82
2021/12/19 13:22:06;;;;;;;10.90;1.75;;;8.60;99.90;;;;;;5072644;28;20055;-83
2021/12/19 13:24:35;;;;;;;11.95;1.33;;;8.70;99.90;;;;;;5073845;28;20021;-82
2021/12/19 13:27:12;;;;;;;13.18;1.58;;;8.60;99.90;;;;;;5076819;28;20027;-82
2021/12/19 13:29:39;;;;;;;7.82;1.55;;;8.60;99.90;;;;;;5072922;28;20032;-83
2021/12/19 13:32:22;;;;;;;8.05;1.75;;;8.70;99.90;;;;;;5091570;28;20032;-82
2021/12/19 13:34:50;;;;;;;7.22;1.65;;;8.70;99.90;;;;;;5072442;28;20048;-83
2021/12/19 13:37:16;;;;;;;6.50;1.33;;;8.70;99.90;;;;;;5091426;28;20024;-82
2021/12/19 13:39:43;;;;;;;5.50;0.73;;;8.60;99.90;;;;;;5091390;28;20073;-82
2021/12/19 13:42:10;;;;;;;6.57;1.35;;;8.60;99.90;;;;;;5089658;28;20034;-82
2021/12/19 13:44:36;;;;;;;11.60;2.70;;;8.60;99.90;;;;;;5073219;28;20024;-83
2021/12/19 13:47:14;;;;;;;5.43;1.35;;;8.60;99.90;;;;;;5070596;28;20056;-82
2021/12/19 13:49:40;;;;;;;5.82;0.77;;;8.60;99.90;;;;;;5071138;28;20025;-82
2021/12/19 13:52:06;;;;;;;11.35;1.58;;;8.60;99.90;;;;;;5091116;28;20544;-82
2021/12/19 13:54:34;;;;;;;8.65;1.17;;;8.60;99.90;;;;;;5091401;28;20020;-83
2021/12/19 13:57:00;;;;;;;6.65;1.50;;;8.60;99.90;;;;;;5073170;28;20047;-82
2021/12/19 13:59:27;;;;;;;6.88;2.50;;;8.60;99.90;;;;;;5089547;28;20456;-82
2021/12/19 14:01:54;;;;;;;6.38;1.20;;;8.60;99.90;;;;;;5090690;28;20480;-82
2021/12/19 14:04:23;;;;;;;8.10;2.90;;;8.50;99.90;;;;;;5090391;28;20065;-82
2021/12/19 14:06:50;;;;;;;13.20;3.33;;;8.50;99.90;;;;;;5090601;28;20416;-82